sensor_id;sensor_type;location;lat;lon;timestamp;P1;durP1;ratioP1;P2;durP2;ratioP2
14736;SDS011;7459;53.590;10.062;2023-01-09T00:01:39;6.33;;;1.40;;
14736;SDS011;7459;53.590;10.062;2023-01-09T00:04:12;3.13;;;1.42;;
14736;SDS011;7459;53.590;10.062;2023-01-09T00:06:38;3.25;;;1.40;;
14736;SDS011;7459;53.590;10.062;2023-01-09T00:09:17;4.00;;;1.05;;
14736;SDS011;7459;53.590;10.062;2023-01-09T00:11:49;3.30;;;1.50;;
14736;SDS011;7459;53.590;10.062;2023-01-09T00:14:17;5.32;;;1.30;;
14736;SDS011;7459;53.590;10.062;2023-01-09T00:16:43;2.88;;;1.30;;
14736;SDS011;7459;53.590;10.062;2023-01-09T00:19:09;3.50;;;1.40;;
14736;SDS011;7459;53.590;10.062;2023-01-09T00:21:36;2.70;;;1.10;;
14736;SDS011;7459;53.590;10.062;2023-01-09T00:24:02;4.13;;;1.42;;
14736;SDS011;7459;53.590;10.062;2023-01-09T00:26:28;7.00;;;1.70;;
14736;SDS011;7459;53.590;10.062;2023-01-09T00:28:54;5.35;;;1.52;;
14736;SDS011;7459;53.590;10.062;2023-01-09T00:31:20;3.50;;;1.40;;
14736;SDS011;7459;53.590;10.062;2023-01-09T00:36:31;2.65;;;0.90;;
14736;SDS011;7459;53.590;10.062;2023-01-09T00:38:57;4.25;;;1.38;;
14736;SDS011;7459;53.590;10.062;2023-01-09T00:41:25;3.13;;;1.20;;
14736;SDS011;7459;53.590;10.062;2023-01-09T00:44:00;3.67;;;1.20;;
14736;SDS011;7459;53.590;10.062;2023-01-09T00:46:33;4.93;;;1.20;;
14736;SDS011;7459;53.590;10.062;2023-01-09T00:49:03;2.88;;;0.90;;
14736;SDS011;7459;53.590;10.062;2023-01-09T00:51:31;5.90;;;1.25;;
14736;SDS011;7459;53.590;10.062;2023-01-09T00:53:56;2.50;;;1.10;;
14736;SDS011;7459;53.590;10.062;2023-01-09T00:56:22;3.58;;;1.23;;
14736;SDS011;7459;53.590;10.062;2023-01-09T00:58:50;2.75;;;1.00;;
14736;SDS011;7459;53.590;10.062;2023-01-09T01:01:16;4.47;;;1.25;;
14736;SDS011;7459;53.590;10.062;2023-01-09T01:03:41;4.67;;;1.20;;
14736;SDS011;7459;53.590;10.062;2023-01-09T01:06:07;4.47;;;1.50;;
14736;SDS011;7459;53.590;10.062;2023-01-09T01:08:51;4.90;;;1.63;;
14736;SDS011;7459;53.590;10.062;2023-01-09T01:11:19;4.10;;;1.58;;
14736;SDS011;7459;53.590;10.062;2023-01-09T01:13:45;5.30;;;2.55;;
14736;SDS011;7459;53.590;10.062;2023-01-09T01:16:11;7.10;;;3.47;;
14736;SDS011;7459;53.590;10.062;2023-01-09T01:18:38;6.53;;;2.83;;
14736;SDS011;7459;53.590;10.062;2023-01-09T01:21:05;4.85;;;2.30;;
14736;SDS011;7459;53.590;10.062;2023-01-09T01:23:32;5.35;;;1.80;;
14736;SDS011;7459;53.590;10.062;2023-01-09T01:26:02;4.07;;;1.60;;
14736;SDS011;7459;53.590;10.062;2023-01-09T01:28:36;5.07;;;1.70;;
14736;SDS011;7459;53.590;10.062;2023-01-09T01:31:02;3.40;;;1.63;;
14736;SDS011;7459;53.590;10.062;2023-01-09T01:33:28;4.65;;;1.40;;
14736;SDS011;7459;53.590;10.062;2023-01-09T01:36:04;3.03;;;1.08;;
14736;SDS011;7459;53.590;10.062;2023-01-09T01:38:33;3.05;;;1.48;;
14736;SDS011;7459;53.590;10.062;2023-01-09T01:40:59;4.10;;;1.45;;
14736;SDS011;7459;53.590;10.062;2023-01-09T01:43:26;4.57;;;1.30;;
14736;SDS011;7459;53.590;10.062;2023-01-09T01:45:53;4.43;;;1.20;;
14736;SDS011;7459;53.590;10.062;2023-01-09T01:48:22;3.03;;;1.47;;
14736;SDS011;7459;53.590;10.062;2023-01-09T01:50:53;3.60;;;1.15;;
14736;SDS011;7459;53.590;10.062;2023-01-09T01:53:30;3.60;;;1.50;;
14736;SDS011;7459;53.590;10.062;2023-01-09T01:56:14;3.72;;;1.52;;
14736;SDS011;7459;53.590;10.062;2023-01-09T02:01:49;4.30;;;1.30;;
14736;SDS011;7459;53.590;10.062;2023-01-09T02:04:18;3.80;;;1.40;;
14736;SDS011;7459;53.590;10.062;2023-01-09T02:06:45;3.42;;;1.40;;
14736;SDS011;7459;53.590;10.062;2023-01-09T02:09:15;3.88;;;1.23;;
14736;SDS011;7459;53.590;10.062;2023-01-09T02:11:46;3.13;;;1.40;;
14736;SDS011;7459;53.590;10.062;2023-01-09T02:14:16;3.67;;;1.23;;
14736;SDS011;7459;53.590;10.062;2023-01-09T02:22:36;3.40;;;1.45;;
14736;SDS011;7459;53.590;10.062;2023-01-09T02:31:27;4.43;;;1.08;;
14736;SDS011;7459;53.590;10.062;2023-01-09T02:37:04;5.25;;;1.23;;
14736;SDS011;7459;53.590;10.062;2023-01-09T02:42:52;3.80;;;1.33;;
14736;SDS011;7459;53.590;10.062;2023-01-09T02:45:21;3.35;;;1.35;;
14736;SDS011;7459;53.590;10.062;2023-01-09T02:47:47;3.80;;;1.20;;
14736;SDS011;7459;53.590;10.062;2023-01-09T02:50:23;3.50;;;1.30;;
14736;SDS011;7459;53.590;10.062;2023-01-09T02:55:53;4.85;;;1.40;;
14736;SDS011;7459;53.590;10.062;2023-01-09T03:02:30;5.85;;;1.38;;
14736;SDS011;7459;53.590;10.062;2023-01-09T03:05:12;3.28;;;1.48;;
14736;SDS011;7459;53.590;10.062;2023-01-09T03:10:27;5.03;;;1.67;;
14736;SDS011;7459;53.590;10.062;2023-01-09T03:13:05;4.50;;;1.20;;
14736;SDS011;7459;53.590;10.062;2023-01-09T03:15:35;4.57;;;1.77;;
14736;SDS011;7459;53.590;10.062;2023-01-09T03:18:03;3.92;;;1.30;;
14736;SDS011;7459;53.590;10.062;2023-01-09T03:20:31;3.58;;;1.35;;
14736;SDS011;7459;53.590;10.062;2023-01-09T03:23:02;3.42;;;1.42;;
14736;SDS011;7459;53.590;10.062;2023-01-09T03:25:30;4.45;;;1.50;;
14736;SDS011;7459;53.590;10.062;2023-01-09T03:28:00;4.22;;;1.38;;
14736;SDS011;7459;53.590;10.062;2023-01-09T03:30:29;4.63;;;1.60;;
14736;SDS011;7459;53.590;10.062;2023-01-09T03:32:56;3.67;;;1.25;;
14736;SDS011;7459;53.590;10.062;2023-01-09T03:35:23;5.55;;;1.63;;
14736;SDS011;7459;53.590;10.062;2023-01-09T03:37:49;6.15;;;1.88;;
14736;SDS011;7459;53.590;10.062;2023-01-09T03:40:16;3.60;;;1.40;;
14736;SDS011;7459;53.590;10.062;2023-01-09T03:42:45;3.45;;;1.40;;
14736;SDS011;7459;53.590;10.062;2023-01-09T03:45:11;3.47;;;1.50;;
14736;SDS011;7459;53.590;10.062;2023-01-09T03:47:37;2.72;;;1.25;;
14736;SDS011;7459;53.590;10.062;2023-01-09T03:50:03;5.30;;;1.63;;
14736;SDS011;7459;53.590;10.062;2023-01-09T03:52:30;3.60;;;1.50;;
14736;SDS011;7459;53.590;10.062;2023-01-09T03:54:56;4.80;;;1.27;;
14736;SDS011;7459;53.590;10.062;2023-01-09T03:57:22;4.27;;;1.63;;
14736;SDS011;7459;53.590;10.062;2023-01-09T03:59:50;3.85;;;1.90;;
14736;SDS011;7459;53.590;10.062;2023-01-09T04:02:16;4.43;;;1.40;;
14736;SDS011;7459;53.590;10.062;2023-01-09T04:04:41;3.13;;;1.38;;
14736;SDS011;7459;53.590;10.062;2023-01-09T04:07:07;4.50;;;1.60;;
14736;SDS011;7459;53.590;10.062;2023-01-09T04:09:33;4.32;;;1.45;;
14736;SDS011;7459;53.590;10.062;2023-01-09T04:11:58;4.53;;;1.30;;
14736;SDS011;7459;53.590;10.062;2023-01-09T04:14:24;3.25;;;1.35;;
14736;SDS011;7459;53.590;10.062;2023-01-09T04:16:50;3.07;;;1.27;;
14736;SDS011;7459;53.590;10.062;2023-01-09T04:19:15;4.45;;;1.63;;
14736;SDS011;7459;53.590;10.062;2023-01-09T04:21:41;4.67;;;1.60;;
14736;SDS011;7459;53.590;10.062;2023-01-09T04:24:07;5.13;;;1.40;;
14736;SDS011;7459;53.590;10.062;2023-01-09T04:26:32;4.10;;;1.50;;
14736;SDS011;7459;53.590;10.062;2023-01-09T04:28:58;3.97;;;1.58;;
14736;SDS011;7459;53.590;10.062;2023-01-09T04:31:24;4.73;;;1.33;;
14736;SDS011;7459;53.590;10.062;2023-01-09T04:33:50;4.15;;;1.48;;
14736;SDS011;7459;53.590;10.062;2023-01-09T04:36:16;3.45;;;1.45;;
14736;SDS011;7459;53.590;10.062;2023-01-09T04:38:42;5.40;;;1.43;;
14736;SDS011;7459;53.590;10.062;2023-01-09T04:41:07;6.35;;;1.30;;
14736;SDS011;7459;53.590;10.062;2023-01-09T04:43:33;3.70;;;1.40;;
14736;SDS011;7459;53.590;10.062;2023-01-09T04:45:59;4.38;;;1.70;;
14736;SDS011;7459;53.590;10.062;2023-01-09T04:48:24;5.60;;;1.60;;
14736;SDS011;7459;53.590;10.062;2023-01-09T04:50:50;3.63;;;1.10;;
14736;SDS011;7459;53.590;10.062;2023-01-09T04:53:16;3.20;;;1.30;;
14736;SDS011;7459;53.590;10.062;2023-01-09T04:55:41;4.05;;;1.20;;
14736;SDS011;7459;53.590;10.062;2023-01-09T04:58:07;3.40;;;1.40;;
14736;SDS011;7459;53.590;10.062;2023-01-09T05:00:33;5.18;;;1.60;;
14736;SDS011;7459;53.590;10.062;2023-01-09T05:02:59;3.50;;;1.50;;
14736;SDS011;7459;53.590;10.062;2023-01-09T05:05:26;3.17;;;1.30;;
14736;SDS011;7459;53.590;10.062;2023-01-09T05:07:52;4.18;;;1.48;;
14736;SDS011;7459;53.590;10.062;2023-01-09T05:10:18;3.70;;;1.20;;
14736;SDS011;7459;53.590;10.062;2023-01-09T05:12:43;3.00;;;1.20;;
14736;SDS011;7459;53.590;10.062;2023-01-09T05:15:09;4.33;;;1.30;;
14736;SDS011;7459;53.590;10.062;2023-01-09T05:17:35;5.18;;;1.48;;
14736;SDS011;7459;53.590;10.062;2023-01-09T05:20:01;3.60;;;1.30;;
14736;SDS011;7459;53.590;10.062;2023-01-09T05:22:27;4.18;;;1.50;;
14736;SDS011;7459;53.590;10.062;2023-01-09T05:24:53;5.28;;;1.33;;
14736;SDS011;7459;53.590;10.062;2023-01-09T05:27:19;4.33;;;1.50;;
14736;SDS011;7459;53.590;10.062;2023-01-09T05:29:44;4.40;;;1.50;;
14736;SDS011;7459;53.590;10.062;2023-01-09T05:32:10;3.22;;;1.40;;
14736;SDS011;7459;53.590;10.062;2023-01-09T05:34:36;4.68;;;1.70;;
14736;SDS011;7459;53.590;10.062;2023-01-09T05:37:01;3.90;;;1.45;;
14736;SDS011;7459;53.590;10.062;2023-01-09T05:39:27;4.10;;;1.10;;
14736;SDS011;7459;53.590;10.062;2023-01-09T05:41:53;3.10;;;1.20;;
14736;SDS011;7459;53.590;10.062;2023-01-09T05:44:19;3.43;;;1.40;;
14736;SDS011;7459;53.590;10.062;2023-01-09T05:46:44;3.97;;;0.98;;
14736;SDS011;7459;53.590;10.062;2023-01-09T05:49:10;4.70;;;1.60;;
14736;SDS011;7459;53.590;10.062;2023-01-09T05:51:36;5.32;;;1.35;;
14736;SDS011;7459;53.590;10.062;2023-01-09T05:54:01;4.83;;;1.53;;
14736;SDS011;7459;53.590;10.062;2023-01-09T05:56:28;4.15;;;1.80;;
14736;SDS011;7459;53.590;10.062;2023-01-09T05:58:54;5.27;;;1.33;;
14736;SDS011;7459;53.590;10.062;2023-01-09T06:01:20;3.03;;;1.20;;
14736;SDS011;7459;53.590;10.062;2023-01-09T06:03:45;4.27;;;1.80;;
14736;SDS011;7459;53.590;10.062;2023-01-09T06:06:11;3.63;;;1.40;;
14736;SDS011;7459;53.590;10.062;2023-01-09T06:08:37;5.78;;;1.42;;
14736;SDS011;7459;53.590;10.062;2023-01-09T06:11:03;4.40;;;1.03;;
14736;SDS011;7459;53.590;10.062;2023-01-09T06:13:28;4.75;;;1.23;;
14736;SDS011;7459;53.590;10.062;2023-01-09T06:15:54;2.43;;;0.90;;
14736;SDS011;7459;53.590;10.062;2023-01-09T06:18:20;2.65;;;1.10;;
14736;SDS011;7459;53.590;10.062;2023-01-09T06:20:45;3.40;;;1.27;;
14736;SDS011;7459;53.590;10.062;2023-01-09T06:23:11;3.00;;;0.90;;
14736;SDS011;7459;53.590;10.062;2023-01-09T06:25:37;3.40;;;0.98;;
14736;SDS011;7459;53.590;10.062;2023-01-09T06:28:03;2.37;;;0.77;;
14736;SDS011;7459;53.590;10.062;2023-01-09T06:30:29;2.25;;;0.90;;
14736;SDS011;7459;53.590;10.062;2023-01-09T06:32:54;2.97;;;0.82;;
14736;SDS011;7459;53.590;10.062;2023-01-09T06:35:20;2.20;;;0.70;;
14736;SDS011;7459;53.590;10.062;2023-01-09T06:37:49;2.67;;;0.50;;
14736;SDS011;7459;53.590;10.062;2023-01-09T06:40:16;2.45;;;0.93;;
14736;SDS011;7459;53.590;10.062;2023-01-09T06:42:45;2.17;;;0.80;;
14736;SDS011;7459;53.590;10.062;2023-01-09T06:45:12;3.58;;;1.08;;
14736;SDS011;7459;53.590;10.062;2023-01-09T06:47:38;4.03;;;0.98;;
14736;SDS011;7459;53.590;10.062;2023-01-09T06:50:06;2.45;;;0.82;;
14736;SDS011;7459;53.590;10.062;2023-01-09T06:52:33;2.55;;;0.75;;
14736;SDS011;7459;53.590;10.062;2023-01-09T06:55:00;2.25;;;0.80;;
14736;SDS011;7459;53.590;10.062;2023-01-09T06:57:26;2.55;;;0.88;;
14736;SDS011;7459;53.590;10.062;2023-01-09T06:59:52;2.33;;;0.90;;
14736;SDS011;7459;53.590;10.062;2023-01-09T07:02:18;3.53;;;0.90;;
14736;SDS011;7459;53.590;10.062;2023-01-09T07:04:45;2.38;;;1.00;;
14736;SDS011;7459;53.590;10.062;2023-01-09T07:07:11;3.47;;;1.30;;
14736;SDS011;7459;53.590;10.062;2023-01-09T07:09:37;4.55;;;1.15;;
14736;SDS011;7459;53.590;10.062;2023-01-09T07:12:03;2.38;;;1.13;;
14736;SDS011;7459;53.590;10.062;2023-01-09T07:14:29;3.42;;;1.13;;
14736;SDS011;7459;53.590;10.062;2023-01-09T07:16:55;3.28;;;1.40;;
14736;SDS011;7459;53.590;10.062;2023-01-09T07:19:21;4.10;;;1.58;;
14736;SDS011;7459;53.590;10.062;2023-01-09T07:21:46;3.00;;;1.25;;
14736;SDS011;7459;53.590;10.062;2023-01-09T07:24:12;2.97;;;1.40;;
14736;SDS011;7459;53.590;10.062;2023-01-09T07:26:38;3.83;;;1.60;;
14736;SDS011;7459;53.590;10.062;2023-01-09T07:29:03;4.17;;;1.60;;
14736;SDS011;7459;53.590;10.062;2023-01-09T07:31:29;4.88;;;2.17;;
14736;SDS011;7459;53.590;10.062;2023-01-09T07:33:55;4.67;;;2.13;;
14736;SDS011;7459;53.590;10.062;2023-01-09T07:36:20;4.75;;;2.10;;
14736;SDS011;7459;53.590;10.062;2023-01-09T07:38:46;5.60;;;2.40;;
14736;SDS011;7459;53.590;10.062;2023-01-09T07:41:12;7.43;;;2.78;;
14736;SDS011;7459;53.590;10.062;2023-01-09T07:43:38;4.80;;;2.38;;
14736;SDS011;7459;53.590;10.062;2023-01-09T07:46:04;5.50;;;2.53;;
14736;SDS011;7459;53.590;10.062;2023-01-09T07:48:30;5.95;;;2.92;;
14736;SDS011;7459;53.590;10.062;2023-01-09T07:50:56;5.95;;;2.63;;
14736;SDS011;7459;53.590;10.062;2023-01-09T07:53:22;7.32;;;3.00;;
14736;SDS011;7459;53.590;10.062;2023-01-09T07:55:48;5.33;;;2.70;;
14736;SDS011;7459;53.590;10.062;2023-01-09T07:58:13;6.82;;;2.58;;
14736;SDS011;7459;53.590;10.062;2023-01-09T08:00:39;7.20;;;2.70;;
14736;SDS011;7459;53.590;10.062;2023-01-09T08:03:05;6.13;;;3.00;;
14736;SDS011;7459;53.590;10.062;2023-01-09T08:05:30;6.78;;;3.30;;
14736;SDS011;7459;53.590;10.062;2023-01-09T08:07:57;8.70;;;3.53;;
14736;SDS011;7459;53.590;10.062;2023-01-09T08:10:22;6.90;;;3.50;;
14736;SDS011;7459;53.590;10.062;2023-01-09T08:12:48;7.82;;;3.70;;
14736;SDS011;7459;53.590;10.062;2023-01-09T08:15:14;8.77;;;3.60;;
14736;SDS011;7459;53.590;10.062;2023-01-09T08:17:41;5.93;;;3.40;;
14736;SDS011;7459;53.590;10.062;2023-01-09T08:20:11;7.53;;;3.47;;
14736;SDS011;7459;53.590;10.062;2023-01-09T08:22:42;7.18;;;3.58;;
14736;SDS011;7459;53.590;10.062;2023-01-09T08:25:14;8.10;;;3.55;;
14736;SDS011;7459;53.590;10.062;2023-01-09T08:27:40;10.95;;;3.95;;
14736;SDS011;7459;53.590;10.062;2023-01-09T08:30:06;7.95;;;3.72;;
14736;SDS011;7459;53.590;10.062;2023-01-09T08:32:33;7.57;;;3.92;;
14736;SDS011;7459;53.590;10.062;2023-01-09T08:35:00;8.77;;;3.85;;
14736;SDS011;7459;53.590;10.062;2023-01-09T08:37:25;8.02;;;4.15;;
14736;SDS011;7459;53.590;10.062;2023-01-09T08:39:51;9.30;;;3.60;;
14736;SDS011;7459;53.590;10.062;2023-01-09T08:42:17;8.90;;;3.93;;
14736;SDS011;7459;53.590;10.062;2023-01-09T08:45:02;8.23;;;4.30;;
14736;SDS011;7459;53.590;10.062;2023-01-09T08:47:46;7.93;;;3.80;;
14736;SDS011;7459;53.590;10.062;2023-01-09T08:50:12;9.47;;;4.80;;
14736;SDS011;7459;53.590;10.062;2023-01-09T08:52:38;7.70;;;3.97;;
14736;SDS011;7459;53.590;10.062;2023-01-09T08:55:04;8.77;;;4.72;;
14736;SDS011;7459;53.590;10.062;2023-01-09T08:57:30;8.00;;;4.40;;
14736;SDS011;7459;53.590;10.062;2023-01-09T08:59:56;8.20;;;4.25;;
14736;SDS011;7459;53.590;10.062;2023-01-09T09:02:22;10.05;;;4.85;;
14736;SDS011;7459;53.590;10.062;2023-01-09T09:04:47;8.73;;;4.87;;
14736;SDS011;7459;53.590;10.062;2023-01-09T09:07:16;7.10;;;4.00;;
14736;SDS011;7459;53.590;10.062;2023-01-09T09:09:53;9.98;;;4.38;;
14736;SDS011;7459;53.590;10.062;2023-01-09T09:12:19;9.50;;;4.38;;
14736;SDS011;7459;53.590;10.062;2023-01-09T09:14:45;9.23;;;4.50;;
14736;SDS011;7459;53.590;10.062;2023-01-09T09:17:30;9.45;;;4.47;;
14736;SDS011;7459;53.590;10.062;2023-01-09T09:19:57;9.80;;;4.30;;
14736;SDS011;7459;53.590;10.062;2023-01-09T09:22:23;10.90;;;4.90;;
14736;SDS011;7459;53.590;10.062;2023-01-09T09:24:50;10.20;;;5.28;;
14736;SDS011;7459;53.590;10.062;2023-01-09T09:27:15;13.10;;;5.30;;
14736;SDS011;7459;53.590;10.062;2023-01-09T09:29:41;11.52;;;4.53;;
14736;SDS011;7459;53.590;10.062;2023-01-09T09:32:07;11.47;;;5.33;;
14736;SDS011;7459;53.590;10.062;2023-01-09T09:34:32;11.43;;;4.80;;
14736;SDS011;7459;53.590;10.062;2023-01-09T09:36:58;12.60;;;5.47;;
14736;SDS011;7459;53.590;10.062;2023-01-09T09:39:24;12.52;;;4.78;;
14736;SDS011;7459;53.590;10.062;2023-01-09T09:42:37;9.03;;;4.37;;
14736;SDS011;7459;53.590;10.062;2023-01-09T09:45:14;11.82;;;4.65;;
14736;SDS011;7459;53.590;10.062;2023-01-09T09:54:05;9.93;;;4.65;;
14736;SDS011;7459;53.590;10.062;2023-01-09T09:56:47;12.00;;;3.87;;
14736;SDS011;7459;53.590;10.062;2023-01-09T09:59:20;13.57;;;3.72;;
14736;SDS011;7459;53.590;10.062;2023-01-09T10:04:35;9.48;;;4.50;;
14736;SDS011;7459;53.590;10.062;2023-01-09T10:07:14;8.70;;;3.92;;
14736;SDS011;7459;53.590;10.062;2023-01-09T10:09:59;10.67;;;4.07;;
14736;SDS011;7459;53.590;10.062;2023-01-09T10:12:30;9.85;;;3.13;;
14736;SDS011;7459;53.590;10.062;2023-01-09T10:15:06;9.88;;;3.50;;
14736;SDS011;7459;53.590;10.062;2023-01-09T10:17:49;9.23;;;3.45;;
14736;SDS011;7459;53.590;10.062;2023-01-09T10:23:10;8.97;;;3.40;;
14736;SDS011;7459;53.590;10.062;2023-01-09T10:26:11;7.38;;;2.97;;
14736;SDS011;7459;53.590;10.062;2023-01-09T10:28:56;9.27;;;3.65;;
14736;SDS011;7459;53.590;10.062;2023-01-09T10:34:56;9.30;;;3.53;;
14736;SDS011;7459;53.590;10.062;2023-01-09T10:38:04;10.67;;;3.33;;
14736;SDS011;7459;53.590;10.062;2023-01-09T10:40:34;11.18;;;3.08;;
14736;SDS011;7459;53.590;10.062;2023-01-09T10:43:15;9.45;;;3.00;;
14736;SDS011;7459;53.590;10.062;2023-01-09T10:46:11;9.68;;;3.03;;
14736;SDS011;7459;53.590;10.062;2023-01-09T10:48:50;9.32;;;3.28;;
14736;SDS011;7459;53.590;10.062;2023-01-09T10:51:24;8.80;;;3.03;;
14736;SDS011;7459;53.590;10.062;2023-01-09T10:54:12;13.15;;;3.22;;
14736;SDS011;7459;53.590;10.062;2023-01-09T10:59:26;7.85;;;2.78;;
14736;SDS011;7459;53.590;10.062;2023-01-09T11:01:51;7.37;;;2.70;;
14736;SDS011;7459;53.590;10.062;2023-01-09T11:04:29;9.85;;;2.40;;
14736;SDS011;7459;53.590;10.062;2023-01-09T11:07:10;9.00;;;2.30;;
14736;SDS011;7459;53.590;10.062;2023-01-09T11:12:36;5.63;;;2.20;;
14736;SDS011;7459;53.590;10.062;2023-01-09T11:17:40;10.68;;;2.40;;
14736;SDS011;7459;53.590;10.062;2023-01-09T11:22:44;7.28;;;2.25;;
14736;SDS011;7459;53.590;10.062;2023-01-09T11:25:13;8.25;;;2.55;;
14736;SDS011;7459;53.590;10.062;2023-01-09T11:27:42;6.45;;;2.40;;
14736;SDS011;7459;53.590;10.062;2023-01-09T11:32:50;7.85;;;2.40;;
14736;SDS011;7459;53.590;10.062;2023-01-09T11:35:17;10.95;;;3.03;;
14736;SDS011;7459;53.590;10.062;2023-01-09T11:38:11;11.07;;;2.40;;
14736;SDS011;7459;53.590;10.062;2023-01-09T11:40:48;14.05;;;2.83;;
14736;SDS011;7459;53.590;10.062;2023-01-09T11:46:01;11.82;;;2.65;;
14736;SDS011;7459;53.590;10.062;2023-01-09T11:48:34;6.43;;;2.60;;
14736;SDS011;7459;53.590;10.062;2023-01-09T11:51:19;7.22;;;2.42;;
14736;SDS011;7459;53.590;10.062;2023-01-09T11:56:31;11.82;;;2.47;;
14736;SDS011;7459;53.590;10.062;2023-01-09T11:58:57;7.57;;;2.47;;
14736;SDS011;7459;53.590;10.062;2023-01-09T12:01:36;7.63;;;2.17;;
14736;SDS011;7459;53.590;10.062;2023-01-09T12:09:54;7.53;;;2.28;;
14736;SDS011;7459;53.590;10.062;2023-01-09T12:21:32;10.55;;;2.78;;
14736;SDS011;7459;53.590;10.062;2023-01-09T12:24:27;9.05;;;2.28;;
14736;SDS011;7459;53.590;10.062;2023-01-09T12:27:27;11.98;;;2.85;;
14736;SDS011;7459;53.590;10.062;2023-01-09T12:36:52;13.73;;;3.63;;
14736;SDS011;7459;53.590;10.062;2023-01-09T12:39:50;7.20;;;2.85;;
14736;SDS011;7459;53.590;10.062;2023-01-09T12:48:12;10.70;;;3.85;;
14736;SDS011;7459;53.590;10.062;2023-01-09T12:56:40;10.90;;;3.92;;
14736;SDS011;7459;53.590;10.062;2023-01-09T12:59:22;8.07;;;3.75;;
14736;SDS011;7459;53.590;10.062;2023-01-09T13:05:01;10.60;;;3.90;;
14736;SDS011;7459;53.590;10.062;2023-01-09T13:07:38;7.72;;;3.53;;
14736;SDS011;7459;53.590;10.062;2023-01-09T13:10:25;8.43;;;3.47;;
14736;SDS011;7459;53.590;10.062;2023-01-09T13:13:43;7.30;;;3.47;;
14736;SDS011;7459;53.590;10.062;2023-01-09T13:16:27;8.43;;;3.70;;
14736;SDS011;7459;53.590;10.062;2023-01-09T13:19:02;10.27;;;3.92;;
14736;SDS011;7459;53.590;10.062;2023-01-09T13:21:38;10.05;;;3.83;;
14736;SDS011;7459;53.590;10.062;2023-01-09T13:26:49;9.70;;;4.10;;
14736;SDS011;7459;53.590;10.062;2023-01-09T13:29:24;12.43;;;4.15;;
14736;SDS011;7459;53.590;10.062;2023-01-09T13:32:02;9.13;;;3.80;;
14736;SDS011;7459;53.590;10.062;2023-01-09T13:34:43;11.07;;;3.80;;
14736;SDS011;7459;53.590;10.062;2023-01-09T13:37:30;8.88;;;3.67;;
14736;SDS011;7459;53.590;10.062;2023-01-09T13:40:03;10.60;;;4.40;;
14736;SDS011;7459;53.590;10.062;2023-01-09T13:45:23;11.98;;;4.35;;
14736;SDS011;7459;53.590;10.062;2023-01-09T13:50:38;9.57;;;4.20;;
14736;SDS011;7459;53.590;10.062;2023-01-09T13:53:41;8.52;;;4.10;;
14736;SDS011;7459;53.590;10.062;2023-01-09T13:56:08;7.95;;;3.53;;
14736;SDS011;7459;53.590;10.062;2023-01-09T14:01:04;10.73;;;4.63;;
14736;SDS011;7459;53.590;10.062;2023-01-09T14:06:33;9.77;;;3.97;;
14736;SDS011;7459;53.590;10.062;2023-01-09T14:09:06;11.65;;;4.50;;
14736;SDS011;7459;53.590;10.062;2023-01-09T14:11:43;10.05;;;4.40;;
14736;SDS011;7459;53.590;10.062;2023-01-09T14:14:20;10.88;;;4.55;;
14736;SDS011;7459;53.590;10.062;2023-01-09T14:16:52;10.20;;;4.45;;
14736;SDS011;7459;53.590;10.062;2023-01-09T14:19:25;7.80;;;4.10;;
14736;SDS011;7459;53.590;10.062;2023-01-09T14:21:57;8.25;;;3.78;;
14736;SDS011;7459;53.590;10.062;2023-01-09T14:24:28;10.00;;;4.28;;
14736;SDS011;7459;53.590;10.062;2023-01-09T14:27:08;11.55;;;4.55;;
14736;SDS011;7459;53.590;10.062;2023-01-09T14:30:31;6.80;;;3.30;;
14736;SDS011;7459;53.590;10.062;2023-01-09T14:33:04;9.27;;;3.67;;
14736;SDS011;7459;53.590;10.062;2023-01-09T14:38:51;14.13;;;3.78;;
14736;SDS011;7459;53.590;10.062;2023-01-09T14:41:24;9.75;;;3.30;;
14736;SDS011;7459;53.590;10.062;2023-01-09T14:44:27;7.90;;;3.20;;
14736;SDS011;7459;53.590;10.062;2023-01-09T14:47:09;6.70;;;2.90;;
14736;SDS011;7459;53.590;10.062;2023-01-09T14:49:49;6.75;;;3.30;;
14736;SDS011;7459;53.590;10.062;2023-01-09T14:52:21;10.38;;;3.25;;
14736;SDS011;7459;53.590;10.062;2023-01-09T14:54:58;5.38;;;2.35;;
14736;SDS011;7459;53.590;10.062;2023-01-09T14:57:29;8.65;;;2.90;;
14736;SDS011;7459;53.590;10.062;2023-01-09T15:00:02;5.40;;;2.47;;
14736;SDS011;7459;53.590;10.062;2023-01-09T15:02:37;10.30;;;2.55;;
14736;SDS011;7459;53.590;10.062;2023-01-09T15:05:06;8.73;;;2.75;;
14736;SDS011;7459;53.590;10.062;2023-01-09T15:07:36;6.75;;;2.47;;
14736;SDS011;7459;53.590;10.062;2023-01-09T15:10:22;5.55;;;2.60;;
14736;SDS011;7459;53.590;10.062;2023-01-09T15:12:53;6.78;;;2.42;;
14736;SDS011;7459;53.590;10.062;2023-01-09T15:15:20;7.28;;;2.88;;
14736;SDS011;7459;53.590;10.062;2023-01-09T15:17:54;8.02;;;3.28;;
14736;SDS011;7459;53.590;10.062;2023-01-09T15:20:24;6.45;;;2.88;;
14736;SDS011;7459;53.590;10.062;2023-01-09T15:22:54;9.40;;;3.10;;
14736;SDS011;7459;53.590;10.062;2023-01-09T15:25:28;6.45;;;3.55;;
14736;SDS011;7459;53.590;10.062;2023-01-09T15:27:57;8.82;;;3.38;;
14736;SDS011;7459;53.590;10.062;2023-01-09T15:30:26;11.15;;;3.90;;
14736;SDS011;7459;53.590;10.062;2023-01-09T15:32:59;8.30;;;3.00;;
14736;SDS011;7459;53.590;10.062;2023-01-09T15:35:28;11.40;;;4.43;;
14736;SDS011;7459;53.590;10.062;2023-01-09T15:37:54;10.23;;;4.60;;
14736;SDS011;7459;53.590;10.062;2023-01-09T15:40:23;10.18;;;4.05;;
14736;SDS011;7459;53.590;10.062;2023-01-09T15:42:56;9.75;;;3.60;;
14736;SDS011;7459;53.590;10.062;2023-01-09T15:50:48;10.02;;;4.15;;
14736;SDS011;7459;53.590;10.062;2023-01-09T15:53:18;10.52;;;3.95;;
14736;SDS011;7459;53.590;10.062;2023-01-09T15:56:00;8.65;;;4.20;;
14736;SDS011;7459;53.590;10.062;2023-01-09T15:58:54;9.50;;;4.10;;
14736;SDS011;7459;53.590;10.062;2023-01-09T16:01:27;9.80;;;4.28;;
14736;SDS011;7459;53.590;10.062;2023-01-09T16:04:32;8.73;;;4.22;;
14736;SDS011;7459;53.590;10.062;2023-01-09T16:07:08;9.32;;;4.32;;
14736;SDS011;7459;53.590;10.062;2023-01-09T16:09:39;11.93;;;4.13;;
14736;SDS011;7459;53.590;10.062;2023-01-09T16:12:22;10.40;;;4.32;;
14736;SDS011;7459;53.590;10.062;2023-01-09T16:14:53;9.13;;;4.50;;
14736;SDS011;7459;53.590;10.062;2023-01-09T16:17:25;11.20;;;5.03;;
14736;SDS011;7459;53.590;10.062;2023-01-09T16:19:54;11.73;;;4.40;;
14736;SDS011;7459;53.590;10.062;2023-01-09T16:22:23;16.50;;;5.30;;
14736;SDS011;7459;53.590;10.062;2023-01-09T16:24:57;11.77;;;4.65;;
14736;SDS011;7459;53.590;10.062;2023-01-09T16:27:29;10.05;;;5.05;;
14736;SDS011;7459;53.590;10.062;2023-01-09T16:30:02;12.43;;;4.97;;
14736;SDS011;7459;53.590;10.062;2023-01-09T16:32:32;14.18;;;5.72;;
14736;SDS011;7459;53.590;10.062;2023-01-09T16:35:01;10.10;;;5.10;;
14736;SDS011;7459;53.590;10.062;2023-01-09T16:37:30;11.98;;;5.63;;
14736;SDS011;7459;53.590;10.062;2023-01-09T16:42:44;11.23;;;5.15;;
14736;SDS011;7459;53.590;10.062;2023-01-09T16:48:10;10.30;;;4.95;;
14736;SDS011;7459;53.590;10.062;2023-01-09T16:50:40;14.98;;;6.10;;
14736;SDS011;7459;53.590;10.062;2023-01-09T16:53:14;13.00;;;5.55;;
14736;SDS011;7459;53.590;10.062;2023-01-09T16:55:43;13.00;;;5.78;;
14736;SDS011;7459;53.590;10.062;2023-01-09T16:58:14;13.05;;;5.68;;
14736;SDS011;7459;53.590;10.062;2023-01-09T17:00:42;12.23;;;5.40;;
14736;SDS011;7459;53.590;10.062;2023-01-09T17:03:12;10.20;;;4.97;;
14736;SDS011;7459;53.590;10.062;2023-01-09T17:05:39;12.85;;;5.70;;
14736;SDS011;7459;53.590;10.062;2023-01-09T17:08:18;12.00;;;5.07;;
14736;SDS011;7459;53.590;10.062;2023-01-09T17:10:48;12.40;;;5.70;;
14736;SDS011;7459;53.590;10.062;2023-01-09T17:13:14;10.82;;;4.70;;
14736;SDS011;7459;53.590;10.062;2023-01-09T17:15:40;9.02;;;4.38;;
14736;SDS011;7459;53.590;10.062;2023-01-09T17:18:16;10.52;;;4.43;;
14736;SDS011;7459;53.590;10.062;2023-01-09T17:20:46;9.35;;;4.47;;